Time;durP1;ratioP1;P1;durP2;ratioP2;P2;SDS_P1;SDS_P2;PMS_P1;PMS_P2;Temp;Humidity;BMP_temperature;BMP_pressure;BME280_temperature;BME280_humidity;BME280_pressure;Samples;Min_cycle;Max_cycle;Signal;HPM_P1;HPM_P2
2021/07/01 00:01:53;;;;;;;8.48;6.45;;;;;;;23.04;53.98;101724.34;5050705;28;20060;-65
2021/07/01 00:04:18;;;;;;;7.88;6.40;;;;;;;23.04;54.06;101724.34;5050394;28;20061;-65
2021/07/01 00:06:44;;;;;;;7.38;6.35;;;;;;;23.05;54.27;101717.16;5038906;28;20485;-63
2021/07/01 00:09:17;;;;;;;7.18;6.47;;;;;;;23.05;54.23;101715.28;5050097;28;20437;-65
2021/07/01 00:11:43;;;;;;;7.20;6.07;;;;;;;23.06;54.21;101718.81;5050116;28;20111;-64
2021/07/01 00:14:09;;;;;;;7.32;6.03;;;;;;;23.06;54.13;101718.81;5050227;28;20041;-64
2021/07/01 00:16:35;;;;;;;7.75;6.38;;;;;;;23.06;54.31;101719.63;5031729;28;20036;-66
2021/07/01 00:19:00;;;;;;;7.93;6.68;;;;;;;23.05;53.99;101723.31;5050329;28;20124;-64
2021/07/01 00:21:26;;;;;;;7.60;6.18;;;;;;;23.07;54.21;101717.78;5049516;28;20041;-69
2021/07/01 00:23:51;;;;;;;6.93;6.13;;;;;;;23.08;54.09;101722.09;5032131;28;20033;-64
2021/07/01 00:26:18;;;;;;;6.97;6.28;;;;;;;23.08;54.32;101728.28;5049767;28;20105;-64
2021/07/01 00:28:44;;;;;;;6.97;6.28;;;;;;;23.07;54.37;101729.31;5049493;28;20108;-63
2021/07/01 00:31:09;;;;;;;7.30;6.13;;;;;;;23.08;54.18;101725.59;5050249;28;20068;-65
2021/07/01 00:33:35;;;;;;;8.60;6.60;;;;;;;23.08;54.02;101719.44;5049910;28;20039;-66
2021/07/01 00:36:00;;;;;;;7.38;6.10;;;;;;;23.08;54.18;101714.91;5049288;28;20333;-64
2021/07/01 00:38:26;;;;;;;6.40;5.80;;;;;;;23.09;54.10;101721.91;5031948;28;20494;-64
2021/07/01 00:40:51;;;;;;;7.30;6.60;;;;;;;23.09;54.16;101719.22;5048708;28;20044;-64
2021/07/01 00:43:16;;;;;;;7.32;6.00;;;;;;;23.10;54.23;101715.53;5049282;28;20048;-64
2021/07/01 00:45:42;;;;;;;6.50;5.80;;;;;;;23.11;54.40;101721.69;5048866;28;20051;-65
2021/07/01 00:48:08;;;;;;;7.72;6.97;;;;;;;23.11;54.04;101708.31;5048963;28;20040;-64
2021/07/01 00:50:34;;;;;;;7.07;6.18;;;;;;;23.10;54.46;101718.19;5045621;28;20210;-65
2021/07/01 00:52:59;;;;;;;6.80;5.93;;;;;;;23.10;54.47;101717.38;5049918;28;20076;-65
2021/07/01 00:55:25;;;;;;;6.95;6.25;;;;;;;23.12;54.13;101715.31;5029865;28;20052;-67
2021/07/01 00:57:50;;;;;;;7.28;6.20;;;;;;;23.11;54.29;101711.81;5035127;28;20120;-65
2021/07/01 01:03:00;;;;;;;7.30;6.43;;;;;;;23.12;54.18;101723.34;5049221;28;20060;-67
2021/07/01 01:05:25;;;;;;;7.10;6.28;;;;;;;23.11;54.05;101717.16;5039909;28;20275;-64
2021/07/01 01:07:51;;;;;;;7.78;6.45;;;;;;;23.12;54.44;101721.50;5061567;28;20464;-65
2021/07/01 01:10:17;;;;;;;6.60;5.90;;;;;;;23.13;54.22;101725.00;5030833;28;20056;-65
2021/07/01 01:12:43;;;;;;;8.13;6.43;;;;;;;23.12;54.23;101726.84;5049003;28;20037;-64
2021/07/01 01:15:09;;;;;;;6.68;5.97;;;;;;;23.13;54.12;101723.16;5048752;28;20040;-64
2021/07/01 01:17:34;;;;;;;6.45;5.72;;;;;;;23.13;54.32;101722.31;5048990;28;20509;-64
2021/07/01 01:20:00;;;;;;;7.60;6.63;;;;;;;23.13;54.47;101728.50;5049237;28;20036;-66
2021/07/01 01:22:25;;;;;;;6.50;5.90;;;;;;;23.13;54.48;101733.84;5048868;28;20036;-63
2021/07/01 01:24:51;;;;;;;7.45;6.30;;;;;;;23.13;54.44;101739.22;5048161;28;20056;-64
2021/07/01 01:27:18;;;;;;;7.72;6.85;;;;;;;23.13;54.60;101738.38;5049004;28;20148;-64
2021/07/01 01:29:44;;;;;;;6.70;6.00;;;;;;;23.14;54.58;101737.34;5048563;28;20033;-64
2021/07/01 01:32:10;;;;;;;6.90;6.20;;;;;;;23.13;54.53;101739.22;5031224;28;20037;-66
2021/07/01 01:34:35;;;;;;;7.07;6.38;;;;;;;23.14;54.50;101740.84;5049094;28;20483;-64
2021/07/01 01:37:00;;;;;;;7.43;6.72;;;;;;;23.14;54.10;101748.06;5048482;28;20071;-63
2021/07/01 01:39:26;;;;;;;8.10;6.55;;;;;;;23.13;54.27;101733.84;5047959;28;20041;-65
2021/07/01 01:41:51;;;;;;;6.82;6.22;;;;;;;23.13;54.46;101744.56;5029912;28;20048;-64
2021/07/01 01:44:17;;;;;;;7.53;6.20;;;;;;;23.13;54.29;101747.22;5031158;28;20040;-64
2021/07/01 01:46:42;;;;;;;7.28;6.57;;;;;;;23.13;54.48;101733.84;5030402;28;20067;-65
2021/07/01 01:49:09;;;;;;;7.57;6.78;;;;;;;23.13;54.55;101733.03;5044920;28;20057;-63
2021/07/01 01:51:35;;;;;;;7.18;6.47;;;;;;;23.13;54.29;101733.03;5037750;28;20025;-64
2021/07/01 01:54:01;;;;;;;7.55;6.72;;;;;;;23.14;54.69;101742.72;5047508;28;20052;-64
2021/07/01 01:56:36;;;;;;;7.20;6.50;;;;;;;23.14;54.64;101732.81;5048483;28;20059;-64
2021/07/01 01:59:06;;;;;;;7.93;7.13;;;;;;;23.13;54.15;101741.88;5048817;28;20043;-65
2021/07/01 02:01:32;;;;;;;7.05;6.32;;;;;;;23.15;54.38;101744.34;5048555;28;20056;-70
2021/07/01 02:03:58;;;;;;;7.20;6.47;;;;;;;23.14;54.38;101742.72;5047774;28;20044;-66
2021/07/01 02:06:24;;;;;;;6.97;6.28;;;;;;;23.14;54.38;101738.19;5018100;28;20045;-64
2021/07/01 02:08:49;;;;;;;6.72;6.03;;;;;;;23.13;54.40;101735.69;5048143;28;20041;-63
2021/07/01 02:11:14;;;;;;;6.47;5.88;;;;;;;23.14;54.30;101742.72;5047873;28;20025;-64
2021/07/01 02:13:40;;;;;;;6.80;6.10;;;;;;;23.13;54.17;101728.50;5034438;28;20389;-65
2021/07/01 02:16:05;;;;;;;7.70;6.82;;;;;;;23.13;54.17;101717.78;5031699;28;20622;-64
2021/07/01 02:18:31;;;;;;;6.93;6.22;;;;;;;23.14;54.47;101724.78;5033841;28;20052;-63
2021/07/01 02:20:56;;;;;;;7.00;6.30;;;;;;;23.13;54.24;101722.31;5044169;28;20713;-64
2021/07/01 02:23:22;;;;;;;7.18;6.47;;;;;;;23.14;54.60;101735.50;5033046;28;20485;-63
2021/07/01 02:25:49;;;;;;;7.65;6.13;;;;;;;23.14;54.19;101732.81;5009917;28;20039;-63
2021/07/01 02:28:15;;;;;;;6.68;6.07;;;;;;;23.14;54.43;101730.16;5028649;28;20033;-64
2021/07/01 02:30:40;;;;;;;7.15;6.45;;;;;;;23.14;54.17;101730.16;5036154;28;20036;-67
2021/07/01 02:33:06;;;;;;;7.82;6.38;;;;;;;23.15;54.27;101726.44;5028809;28;20145;-64
2021/07/01 02:35:32;;;;;;;7.53;6.65;;;;;;;23.15;54.22;101725.63;5028329;28;20499;-63
2021/07/01 02:37:58;;;;;;;6.90;6.20;;;;;;;23.14;54.38;101730.16;5041564;28;20102;-64
2021/07/01 02:40:24;;;;;;;7.60;6.80;;;;;;;23.15;54.03;101720.28;5037296;28;20552;-64
2021/07/01 02:42:49;;;;;;;7.88;7.07;;;;;;;23.14;54.09;101727.47;5047424;28;20037;-65
2021/07/01 02:45:15;;;;;;;7.45;6.40;;;;;;;23.14;54.46;101724.78;5048035;28;20041;-66
2021/07/01 02:47:41;;;;;;;7.50;6.70;;;;;;;23.14;54.36;101722.13;5033965;28;20025;-63
2021/07/01 02:50:07;;;;;;;7.00;6.30;;;;;;;23.15;54.34;101725.63;5041974;28;20045;-65
2021/07/01 02:52:33;;;;;;;6.60;6.00;;;;;;;23.14;54.07;101724.78;5036521;28;20037;-63
2021/07/01 02:54:58;;;;;;;7.85;6.50;;;;;;;23.14;54.08;101719.44;5040833;28;20408;-63
2021/07/01 02:57:24;;;;;;;7.15;6.28;;;;;;;23.14;54.07;101719.44;5019500;28;20037;-63
2021/07/01 02:59:49;;;;;;;6.90;6.20;;;;;;;23.14;53.91;101719.44;5012773;28;20037;-67
2021/07/01 03:02:14;;;;;;;7.22;6.30;;;;;;;23.15;54.27;101717.59;5047581;28;20155;-64
2021/07/01 03:04:40;;;;;;;7.53;6.72;;;;;;;23.14;54.09;101716.78;5026813;28;20068;-67
2021/07/01 03:07:06;;;;;;;7.05;6.07;;;;;;;23.15;54.01;101720.28;5047113;28;20041;-64
2021/07/01 03:09:31;;;;;;;7.30;6.53;;;;;;;23.15;53.86;101718.41;5047507;28;20115;-63
2021/07/01 03:11:57;;;;;;;7.85;7.03;;;;;;;23.14;54.24;101716.78;5047237;28;20839;-64
2021/07/01 03:14:22;;;;;;;7.65;6.72;;;;;;;23.14;54.03;101715.94;5030335;28;20033;-64
2021/07/01 03:16:48;;;;;;;7.03;6.32;;;;;;;23.15;54.09;101723.78;5047238;28;20048;-64
2021/07/01 03:19:13;;;;;;;7.82;6.63;;;;;;;23.14;53.86;101716.78;5047899;28;20040;-64
2021/07/01 03:21:39;;;;;;;7.40;6.68;;;;;;;23.14;53.76;101715.94;5036801;28;20041;-66
2021/07/01 03:24:04;;;;;;;7.70;6.90;;;;;;;23.14;54.09;101710.59;5029375;28;20053;-63
2021/07/01 03:26:30;;;;;;;7.97;6.45;;;;;;;23.14;54.10;101710.59;5043559;28;20131;-64
2021/07/01 03:28:55;;;;;;;7.22;6.53;;;;;;;23.13;53.70;101717.78;5015353;28;20120;-65
2021/07/01 03:31:21;;;;;;;7.78;6.97;;;;;;;23.14;53.72;101719.44;5032911;28;20451;-64
2021/07/01 03:33:46;;;;;;;7.15;6.45;;;;;;;23.14;53.79;101719.44;5051138;28;20064;-69
2021/07/01 03:36:12;;;;;;;7.55;6.75;;;;;;;23.14;53.98;101724.78;5051220;28;20052;-64
2021/07/01 03:38:38;;;;;;;7.70;6.93;;;;;;;23.14;53.83;101718.63;5051155;28;20059;-65
2021/07/01 03:41:05;;;;;;;8.23;7.20;;;;;;;23.15;53.76;101723.78;5036169;28;20083;-63
2021/07/01 03:43:32;;;;;;;8.20;7.05;;;;;;;23.14;53.48;101716.78;5050969;28;20068;-64
2021/07/01 03:45:57;;;;;;;8.25;6.97;;;;;;;23.15;53.79;101720.28;5050632;28;20056;-64
2021/07/01 03:48:23;;;;;;;8.43;7.55;;;;;;;23.15;53.47;101722.94;5050917;28;20079;-64
2021/07/01 03:50:48;;;;;;;8.50;7.60;;;;;;;23.13;53.79;101725.00;5036575;28;20033;-64
2021/07/01 03:53:14;;;;;;;8.93;7.57;;;;;;;23.15;53.67;101733.66;5050747;28;20132;-65
2021/07/01 03:55:39;;;;;;;7.43;6.63;;;;;;;23.14;53.46;101740.03;5050121;28;20778;-69
2021/07/01 03:58:04;;;;;;;8.32;7.35;;;;;;;23.13;53.63;101739.22;5032833;28;20041;-65
2021/07/01 04:00:31;;;;;;;8.07;7.18;;;;;;;23.14;53.38;101745.38;5032844;28;20041;-66
2021/07/01 04:02:58;;;;;;;9.05;7.88;;;;;;;23.13;53.72;101743.72;5047827;28;20037;-64
2021/07/01 04:05:24;;;;;;;9.40;7.90;;;;;;;23.13;53.40;101739.22;5039597;28;20108;-64
2021/07/01 04:07:49;;;;;;;7.93;7.13;;;;;;;23.14;53.38;101745.38;5032455;28;20143;-63
2021/07/01 04:10:17;;;;;;;10.82;8.68;;;;;;;23.13;53.69;101738.38;5050281;28;20104;-65
2021/07/01 04:12:43;;;;;;;8.55;7.43;;;;;;;23.13;53.32;101739.22;5050466;28;20040;-65
2021/07/01 04:15:09;;;;;;;10.27;8.57;;;;;;;23.13;53.11;101747.22;5049670;28;20534;-64
2021/07/01 04:17:35;;;;;;;7.53;6.70;;;;;;;23.13;53.32;101741.06;5050534;28;20115;-63
2021/07/01 04:20:01;;;;;;;9.38;7.50;;;;;;;23.12;53.24;101740.22;5049584;28;20033;-64
2021/07/01 04:22:26;;;;;;;10.18;7.85;;;;;;;23.12;53.41;101745.59;5032983;28;20038;-64
2021/07/01 04:24:53;;;;;;;8.35;7.20;;;;;;;23.14;53.39;101743.53;5040489;28;20045;-63
2021/07/01 04:27:19;;;;;;;10.02;8.32;;;;;;;23.12;53.41;101748.25;5031254;28;21636;-64
2021/07/01 04:29:45;;;;;;;9.70;7.68;;;;;;;23.13;53.47;101746.41;5049831;28;20143;-63
2021/07/01 04:32:10;;;;;;;10.32;8.75;;;;;;;23.11;53.27;101741.25;5037883;28;20119;-66
2021/07/01 04:34:36;;;;;;;9.63;8.05;;;;;;;23.12;53.14;101742.91;5050197;28;20029;-64
2021/07/01 04:37:03;;;;;;;10.32;8.55;;;;;;;23.13;53.33;101744.56;5050164;28;20461;-63
2021/07/01 04:39:29;;;;;;;10.05;8.20;;;;;;;23.13;53.15;101749.09;5049209;28;20056;-64
2021/07/01 04:41:54;;;;;;;9.73;7.93;;;;;;;23.12;53.39;101752.78;5039215;28;20041;-64
2021/07/01 04:44:20;;;;;;;9.68;7.70;;;;;;;23.11;53.34;101746.59;5049621;28;20037;-66
2021/07/01 04:46:46;;;;;;;10.35;8.23;;;;;;;23.13;53.02;101751.75;5040186;28;20040;-64
2021/07/01 04:49:11;;;;;;;10.07;8.65;;;;;;;23.12;53.06;101750.94;5034810;28;20453;-64
2021/07/01 04:51:36;;;;;;;9.80;8.38;;;;;;;23.12;53.12;101750.94;5031219;28;20035;-65
2021/07/01 04:54:02;;;;;;;9.80;8.18;;;;;;;23.12;53.05;101745.59;5047750;28;20180;-64
2021/07/01 04:56:43;;;;;;;10.45;8.48;;;;;;;23.12;53.36;101740.22;5047971;28;20037;-65
2021/07/01 04:59:19;;;;;;;10.90;8.82;;;;;;;23.11;53.24;101741.25;5049502;28;20029;-64
2021/07/01 05:01:45;;;;;;;10.00;8.38;;;;;;;23.11;52.88;101735.06;5030795;28;20033;-63
2021/07/01 05:04:13;;;;;;;10.07;8.25;;;;;;;23.12;52.95;101737.56;5031732;28;20087;-66
2021/07/01 05:06:39;;;;;;;11.05;8.57;;;;;;;23.12;52.84;101740.22;5048482;28;20051;-64
2021/07/01 05:09:06;;;;;;;10.07;8.32;;;;;;;23.11;52.97;101738.59;5048227;28;20032;-64
2021/07/01 05:11:33;;;;;;;11.27;8.65;;;;;;;23.11;53.05;101729.72;5048927;28;20029;-63
2021/07/01 05:13:59;;;;;;;10.13;8.50;;;;;;;23.11;52.95;101737.75;5030144;28;20490;-64
2021/07/01 05:16:28;;;;;;;10.02;8.10;;;;;;;23.11;53.13;101737.75;5047794;28;20037;-64
2021/07/01 05:18:54;;;;;;;11.30;8.77;;;;;;;23.11;53.15;101727.88;5048867;28;20124;-64
2021/07/01 05:21:19;;;;;;;9.35;8.00;;;;;;;23.11;53.15;101735.06;5021173;28;20128;-64
2021/07/01 05:23:45;;;;;;;8.80;7.70;;;;;;;23.11;52.98;101735.06;5037884;28;20124;-64
2021/07/01 05:26:10;;;;;;;9.82;8.38;;;;;;;23.11;52.82;101724.38;5028855;28;20477;-65
2021/07/01 05:28:36;;;;;;;9.20;7.60;;;;;;;23.10;52.98;101733.44;5024789;28;20033;-64
2021/07/01 05:31:01;;;;;;;8.88;7.20;;;;;;;23.10;52.98;101730.75;5016522;28;20140;-64
2021/07/01 05:33:27;;;;;;;9.57;7.88;;;;;;;23.10;52.91;101736.94;5030953;28;20037;-64
2021/07/01 05:35:52;;;;;;;10.88;8.45;;;;;;;23.11;53.10;101738.59;5048353;28;20041;-66
2021/07/01 05:38:18;;;;;;;9.93;8.25;;;;;;;23.11;52.94;101735.06;5048943;28;20032;-64
2021/07/01 05:40:43;;;;;;;9.68;7.85;;;;;;;23.11;52.96;101740.44;5047619;28;20423;-65
2021/07/01 05:43:09;;;;;;;8.07;6.88;;;;;;;23.10;52.91;101731.56;5048876;28;20466;-63
2021/07/01 05:45:35;;;;;;;10.63;9.10;;;;;;;23.10;52.71;101741.47;5030663;28;20068;-64
2021/07/01 05:48:01;;;;;;;10.38;8.45;;;;;;;23.10;52.95;101731.56;5034437;28;20041;-64
2021/07/01 05:50:26;;;;;;;10.40;8.68;;;;;;;23.10;52.88;101731.56;5030982;28;20036;-64
2021/07/01 05:53:00;;;;;;;11.40;8.93;;;;;;;23.11;52.87;101735.06;5047810;28;20710;-64
2021/07/01 05:55:25;;;;;;;11.40;8.80;;;;;;;23.10;52.49;101734.25;5047686;28;20053;-65
2021/07/01 05:57:51;;;;;;;10.07;8.32;;;;;;;23.10;52.66;101736.94;5034032;28;20092;-64
2021/07/01 06:00:18;;;;;;;13.65;9.05;;;;;;;23.09;52.71;101735.28;5040586;28;20056;-63
2021/07/01 06:02:47;;;;;;;12.32;9.38;;;;;;;23.11;52.63;101729.72;5042120;28;20461;-70
2021/07/01 06:05:13;;;;;;;9.98;8.05;;;;;;;23.10;52.42;101728.06;5047947;28;20041;-64
2021/07/01 06:07:45;;;;;;;10.57;8.40;;;;;;;23.10;52.73;101738.78;5030834;28;20033;-64
2021/07/01 06:10:14;;;;;;;11.18;8.55;;;;;;;23.09;52.61;101735.28;5048175;28;20029;-66
2021/07/01 06:12:41;;;;;;;10.05;8.40;;;;;;;23.10;52.63;101741.47;5048127;28;20031;-66
2021/07/01 06:15:07;;;;;;;10.30;8.50;;;;;;;23.09;52.64;101743.31;5029964;28;20033;-63
2021/07/01 06:17:33;;;;;;;11.52;8.73;;;;;;;23.09;52.78;101748.66;5048908;28;20044;-64
2021/07/01 06:20:03;;;;;;;10.35;8.52;;;;;;;23.10;52.77;101754.84;5047083;28;20037;-64
2021/07/01 06:22:31;;;;;;;9.93;8.38;;;;;;;23.10;52.65;101746.81;5029459;28;20057;-66
2021/07/01 06:24:57;;;;;;;10.57;8.63;;;;;;;23.09;52.55;101754.00;5038630;28;20120;-63
2021/07/01 06:27:35;;;;;;;10.13;8.50;;;;;;;23.10;52.76;101746.81;5034194;28;20124;-63
2021/07/01 06:30:10;;;;;;;9.93;8.20;;;;;;;23.10;52.59;101752.16;5048154;28;20025;-64
2021/07/01 06:32:44;;;;;;;10.98;8.00;;;;;;;23.08;52.59;101741.66;5048515;28;20037;-66
2021/07/01 06:35:11;;;;;;;9.10;8.05;;;;;;;23.09;52.69;101747.84;5031106;28;20045;-66
2021/07/01 06:37:38;;;;;;;9.02;7.55;;;;;;;23.08;52.40;101749.69;5035890;28;20125;-64
2021/07/01 06:40:05;;;;;;;9.68;8.60;;;;;;;23.09;52.57;101750.50;5047587;28;20778;-64
2021/07/01 06:42:32;;;;;;;10.93;9.00;;;;;;;23.09;52.54;101742.47;5029639;28;20122;-64
2021/07/01 06:44:59;;;;;;;9.85;8.10;;;;;;;23.08;52.41;101747.00;5047811;28;20461;-66
2021/07/01 06:47:28;;;;;;;8.50;6.88;;;;;;;23.08;52.57;101744.34;5034489;28;20503;-64
2021/07/01 06:49:54;;;;;;;9.18;7.78;;;;;;;23.08;52.36;101749.69;5047691;28;20067;-64
2021/07/01 06:52:20;;;;;;;8.55;7.45;;;;;;;23.07;52.39;101740.00;5030553;28;20033;-64
2021/07/01 06:54:46;;;;;;;9.02;7.55;;;;;;;23.07;52.46;101745.34;5046611;28;20049;-65
2021/07/01 06:57:13;;;;;;;9.50;7.90;;;;;;;23.08;52.23;101747.00;5019219;28;20033;-63
2021/07/01 06:59:39;;;;;;;10.23;7.80;;;;;;;23.07;52.13;101753.38;5044727;28;20445;-65
2021/07/01 07:02:05;;;;;;;9.30;7.85;;;;;;;23.07;52.41;101753.38;5047564;28;20075;-63
2021/07/01 07:04:33;;;;;;;9.82;8.20;;;;;;;23.08;52.19;101751.53;5048733;28;20033;-64
2021/07/01 07:06:58;;;;;;;8.73;7.53;;;;;;;23.07;52.45;101750.72;5051252;28;20111;-64
2021/07/01 07:09:24;;;;;;;8.77;7.47;;;;;;;23.07;52.49;101750.72;5050615;28;20041;-64
2021/07/01 07:11:50;;;;;;;9.70;7.85;;;;;;;23.08;52.17;101746.19;5032631;28;20083;-66
2021/07/01 07:14:16;;;;;;;8.90;7.93;;;;;;;23.07;52.18;101741.84;5050914;28;20049;-66
2021/07/01 07:16:42;;;;;;;9.10;7.75;;;;;;;23.08;52.12;101744.34;5051294;28;20056;-64
2021/07/01 07:19:12;;;;;;;8.45;7.28;;;;;;;23.06;52.29;101749.06;5033937;28;20033;-64
2021/07/01 07:21:46;;;;;;;9.25;7.88;;;;;;;23.06;52.46;101741.03;5041547;28;20037;-64
2021/07/01 07:24:16;;;;;;;8.63;7.72;;;;;;;23.06;52.35;101743.72;5069026;28;20192;-64
2021/07/01 07:26:43;;;;;;;9.82;7.97;;;;;;;23.07;52.35;101739.19;5051082;28;20033;-64
2021/07/01 07:29:08;;;;;;;8.40;6.93;;;;;;;23.07;52.38;101748.03;5032231;28;20047;-63
2021/07/01 07:31:39;;;;;;;9.40;7.75;;;;;;;23.06;52.40;101737.53;5051082;28;20033;-63
2021/07/01 07:34:05;;;;;;;9.15;7.95;;;;;;;23.06;52.57;101746.38;5050559;28;20554;-63
2021/07/01 07:36:33;;;;;;;9.57;6.75;;;;;;;23.07;53.08;101748.03;5050608;28;20059;-65
2021/07/01 07:38:59;;;;;;;9.43;7.15;;;;;;;23.08;52.90;101743.50;5045411;28;20037;-67
2021/07/01 07:41:25;;;;;;;9.43;7.18;;;;;;;23.08;53.13;101746.19;5050350;28;20044;-63
2021/07/01 07:43:53;;;;;;;10.30;8.32;;;;;;;23.07;52.98;101745.34;5012168;28;20044;-65
2021/07/01 07:46:20;;;;;;;13.73;9.23;;;;;;;23.05;52.77;101750.09;5032565;28;20370;-65
2021/07/01 07:48:46;;;;;;;12.05;9.27;;;;;;;23.05;52.99;101751.94;5051416;28;20032;-65
2021/07/01 07:51:16;;;;;;;11.50;9.43;;;;;;;23.02;53.02;101748.59;5050810;28;20029;-64
2021/07/01 07:53:51;;;;;;;11.23;9.10;;;;;;;23.00;53.00;101749.84;5065905;28;20045;-66
2021/07/01 07:56:21;;;;;;;;;;;;;;;22.91;53.15;101753.69;5048018;28;20604;-64
2021/07/01 07:58:49;;;;;;;17.40;10.27;;;;;;;22.96;52.83;101759.28;5051225;28;19924;-66
2021/07/01 08:01:15;;;;;;;16.77;10.98;;;;;;;22.95;52.57;101757.63;5050429;28;20104;-63
2021/07/01 08:03:42;;;;;;;18.58;11.05;;;;;;;22.93;52.60;101760.50;5051021;28;20051;-64
2021/07/01 08:06:09;;;;;;;15.05;10.32;;;;;;;22.93;52.44;101754.31;5046941;28;20048;-63
2021/07/01 08:08:41;;;;;;;15.43;10.63;;;;;;;22.90;52.61;101758.22;5050488;28;20124;-64
2021/07/01 08:11:10;;;;;;;14.98;10.43;;;;;;;22.90;52.22;101755.56;5049470;28;20029;-64
2021/07/01 08:13:37;;;;;;;13.40;10.65;;;;;;;22.90;52.29;101754.72;5042802;28;20143;-64
2021/07/01 08:16:04;;;;;;;18.35;10.43;;;;;;;22.90;52.37;101760.06;5048190;28;20120;-64
2021/07/01 08:18:31;;;;;;;17.17;11.20;;;;;;;22.91;52.37;101767.09;5031291;28;20036;-63
2021/07/01 08:20:58;;;;;;;15.75;10.60;;;;;;;22.91;52.68;101759.88;5046348;28;20041;-65
2021/07/01 08:23:23;;;;;;;15.23;10.88;;;;;;;22.91;52.77;101765.22;5048475;28;20492;-64
2021/07/01 08:25:51;;;;;;;16.10;10.43;;;;;;;22.91;52.70;101756.38;5011377;28;20124;-68
2021/07/01 08:28:21;;;;;;;18.00;10.25;;;;;;;22.91;52.50;101762.56;5039403;28;20029;-64
2021/07/01 08:30:47;;;;;;;16.08;11.38;;;;;;;22.91;52.63;101756.38;5030092;28;20452;-63
2021/07/01 08:33:18;;;;;;;17.15;11.32;;;;;;;22.89;52.58;101758.44;5048954;28;20044;-63
2021/07/01 08:35:44;;;;;;;14.88;11.20;;;;;;;22.89;52.42;101751.22;5048508;28;20087;-63
2021/07/01 08:38:09;;;;;;;17.52;11.68;;;;;;;22.88;52.55;101746.91;5048773;28;20387;-63
2021/07/01 08:40:37;;;;;;;15.65;11.60;;;;;;;22.87;52.15;101745.22;5035061;28;20034;-69
2021/07/01 08:43:05;;;;;;;16.17;11.38;;;;;;;22.87;51.92;101755.91;5036293;28;20033;-63
2021/07/01 08:46:06;;;;;;;13.48;10.82;;;;;;;22.82;52.19;101752.16;5050423;28;20041;-64
2021/07/01 08:48:42;;;;;;;13.77;11.35;;;;;;;22.84;52.30;101747.47;5038491;28;20119;-64
2021/07/01 08:51:10;;;;;;;15.27;12.15;;;;;;;22.87;51.78;101755.91;5049184;28;20032;-65
2021/07/01 08:53:36;;;;;;;15.07;11.63;;;;;;;22.86;51.98;101748.91;5031073;28;20503;-63
2021/07/01 08:56:03;;;;;;;16.00;12.23;;;;;;;22.85;51.97;101747.25;5034550;28;20038;-64
2021/07/01 08:58:32;;;;;;;14.98;12.25;;;;;;;22.85;51.81;101743.75;5049269;28;20514;-63
2021/07/01 09:01:00;;;;;;;14.68;12.68;;;;;;;22.85;51.66;101747.25;5048898;28;20037;-64
2021/07/01 09:03:28;;;;;;;16.00;13.30;;;;;;;22.84;51.61;101747.47;5035730;28;20061;-63
2021/07/01 09:05:55;;;;;;;17.17;13.35;;;;;;;22.84;51.60;101744.78;5048647;28;20351;-63
2021/07/01 09:08:27;;;;;;;15.73;13.30;;;;;;;22.83;51.56;101743.13;5049060;28;20125;-65
2021/07/01 09:10:53;;;;;;;16.17;13.27;;;;;;;22.82;51.56;101742.31;5048169;28;20041;-65
2021/07/01 09:13:22;;;;;;;18.02;13.88;;;;;;;22.80;51.69;101738.97;5049044;28;20392;-63
2021/07/01 09:15:49;;;;;;;17.27;14.10;;;;;;;22.81;51.41;101742.47;5048862;28;20072;-63
2021/07/01 09:18:15;;;;;;;17.40;14.30;;;;;;;22.79;51.32;101745.34;5048552;28;20020;-63
2021/07/01 09:20:42;;;;;;;18.30;14.85;;;;;;;22.80;51.45;101748.84;5044942;28;20037;-65
2021/07/01 09:23:10;;;;;;;16.23;13.57;;;;;;;22.80;51.38;101746.19;5021601;28;20670;-64
2021/07/01 09:25:37;;;;;;;17.00;14.10;;;;;;;22.78;51.73;101742.88;5033985;28;20124;-64
2021/07/01 09:28:04;;;;;;;17.67;14.10;;;;;;;22.78;51.33;101740.19;5048551;28;20120;-65
2021/07/01 09:30:31;;;;;;;17.50;14.32;;;;;;;22.78;51.50;101746.38;5048591;28;20239;-63
2021/07/01 09:33:07;;;;;;;20.90;15.88;;;;;;;22.77;51.49;101738.56;5055853;28;20090;-63
2021/07/01 09:35:35;;;;;;;20.08;15.98;;;;;;;22.76;51.50;101748.41;5039930;28;20461;-64
2021/07/01 09:38:06;;;;;;;19.65;16.08;;;;;;;22.76;51.24;101739.56;5048466;28;20033;-66
2021/07/01 09:40:33;;;;;;;18.83;16.50;;;;;;;22.76;51.15;101744.94;5034430;28;20367;-63
2021/07/01 09:43:02;;;;;;;20.92;17.13;;;;;;;22.74;51.49;101742.44;5048389;28;20116;-63
2021/07/01 09:45:28;;;;;;;21.00;16.77;;;;;;;22.73;51.39;101743.47;5048424;28;20041;-63
2021/07/01 09:47:56;;;;;;;18.75;15.45;;;;;;;22.72;51.17;101747.13;5034725;28;20182;-63
2021/07/01 09:50:25;;;;;;;19.15;16.08;;;;;;;22.70;51.57;101744.66;5059262;28;20436;-63
2021/07/01 09:52:55;;;;;;;16.08;13.77;;;;;;;22.70;51.37;101758.03;5037517;28;20128;-64
2021/07/01 09:55:27;;;;;;;16.88;13.95;;;;;;;22.66;51.45;101754.09;5047669;28;20092;-66
2021/07/01 09:57:55;;;;;;;17.05;13.27;;;;;;;22.65;51.61;101749.78;5048553;28;20041;-65
2021/07/01 10:00:27;;;;;;;15.07;12.88;;;;;;;22.65;51.58;101744.44;5048633;28;20053;-65
2021/07/01 10:03:07;;;;;;;14.32;12.43;;;;;;;22.62;51.50;101752.84;5048410;28;20051;-65
2021/07/01 10:05:34;;;;;;;14.48;12.43;;;;;;;22.63;51.44;101754.50;5048001;28;20040;-64
2021/07/01 10:08:00;;;;;;;15.15;12.70;;;;;;;22.62;51.40;101752.84;5047932;28;20469;-63
2021/07/01 10:10:26;;;;;;;14.23;11.82;;;;;;;22.62;51.41;101752.84;5047853;28;20031;-64
2021/07/01 10:12:51;;;;;;;13.50;11.60;;;;;;;22.62;51.59;101752.84;5047654;28;20057;-63
2021/07/01 10:15:29;;;;;;;14.88;11.98;;;;;;;22.58;51.37;101746.25;5047526;28;20159;-64
2021/07/01 10:18:12;;;;;;;14.30;11.95;;;;;;;22.57;51.83;101754.47;5048137;28;20035;-63
2021/07/01 10:20:37;;;;;;;14.95;12.50;;;;;;;22.59;51.64;101757.75;5033120;28;20025;-66
2021/07/01 10:23:04;;;;;;;14.82;12.55;;;;;;;22.56;51.33;101750.09;5028610;28;20403;-63
2021/07/01 10:25:32;;;;;;;14.30;11.95;;;;;;;22.56;51.37;101748.25;5041288;28;20043;-63
2021/07/01 10:28:19;;;;;;;14.48;11.15;;;;;;;22.51;51.48;101747.19;5036705;28;20033;-64
2021/07/01 10:31:01;;;;;;;12.65;10.82;;;;;;;22.50;51.54;101757.06;5048041;28;20118;-63
2021/07/01 10:33:32;;;;;;;12.48;10.63;;;;;;;22.52;51.66;101752.34;5048778;28;20029;-65
2021/07/01 10:36:04;;;;;;;13.02;11.02;;;;;;;22.52;51.60;101751.50;5048518;28;20033;-64
2021/07/01 10:38:47;;;;;;;13.82;9.85;;;;;;;22.48;51.63;101747.59;5048405;28;20033;-63
2021/07/01 10:41:37;;;;;;;12.18;10.27;;;;;;;22.46;51.98;101753.13;5051176;28;20112;-63
2021/07/01 10:44:05;;;;;;;12.85;10.32;;;;;;;22.48;51.52;101748.41;5050976;28;20025;-63
2021/07/01 10:46:44;;;;;;;11.93;9.70;;;;;;;22.45;51.68;101748.81;5039251;28;20025;-63
2021/07/01 10:49:14;;;;;;;11.43;9.52;;;;;;;22.48;51.62;101755.59;5051575;28;20045;-63
2021/07/01 10:51:54;;;;;;;12.82;11.23;;;;;;;22.43;51.53;101748.16;5052053;28;20035;-64
2021/07/01 10:54:20;;;;;;;12.80;11.43;;;;;;;22.45;51.74;101751.47;5049428;28;20474;-63
2021/07/01 10:56:49;;;;;;;13.25;11.40;;;;;;;22.46;51.87;101747.78;5039153;28;20111;-64
2021/07/01 10:59:15;;;;;;;13.23;11.43;;;;;;;22.45;51.72;101751.47;5051792;28;20173;-63
2021/07/01 11:01:41;;;;;;;13.32;10.77;;;;;;;22.44;51.73;101741.81;5051795;28;20123;-63
2021/07/01 11:04:11;;;;;;;13.60;11.02;;;;;;;22.44;51.90;101739.13;5051941;28;20033;-63
2021/07/01 11:06:42;;;;;;;12.38;9.75;;;;;;;22.45;51.89;101740.78;5051359;28;20037;-63
2021/07/01 11:09:09;;;;;;;12.52;10.30;;;;;;;22.45;51.99;101746.13;5051469;28;20476;-65
2021/07/01 11:11:37;;;;;;;14.50;10.88;;;;;;;22.44;52.10;101747.16;5033161;28;20495;-63
2021/07/01 11:14:09;;;;;;;13.73;9.88;;;;;;;22.43;51.71;101750.84;5067161;28;20112;-63
2021/07/01 11:16:42;;;;;;;12.02;10.30;;;;;;;22.42;51.94;101744.66;5048094;28;20040;-64
2021/07/01 11:19:11;;;;;;;12.77;9.32;;;;;;;22.44;51.79;101744.47;5042034;28;20594;-64
2021/07/01 11:21:43;;;;;;;13.68;10.35;;;;;;;22.45;51.94;101740.78;5039570;28;20029;-64
2021/07/01 11:24:21;;;;;;;11.75;9.50;;;;;;;22.40;52.28;101746.69;5049347;28;20453;-63